Time;durP1;ratioP1;P1;durP2;ratioP2;P2;SDS_P1;SDS_P2;PMS_P1;PMS_P2;Temp;Humidity;BMP_temperature;BMP_pressure;BME280_temperature;BME280_humidity;BME280_pressure;Samples;Min_cycle;Max_cycle;Signal;HPM_P1;HPM_P2
2023/01/28 00:01:39;;;;;;;51.03;21.30;;;0.90;99.90;;;;;;4980065;28;20207;-77
2023/01/28 00:04:06;;;;;;;55.60;21.37;;;0.90;99.90;;;;;;4986676;28;20208;-70
2023/01/28 00:06:34;;;;;;;53.90;21.67;;;1.00;99.90;;;;;;4997065;28;20217;-70
2023/01/28 00:09:01;;;;;;;52.33;21.23;;;1.00;99.90;;;;;;4995450;28;20218;-70
2023/01/28 00:11:28;;;;;;;56.53;22.03;;;1.00;99.90;;;;;;4994663;28;20208;-75
2023/01/28 00:13:55;;;;;;;54.77;21.90;;;1.00;99.90;;;;;;4995944;28;20191;-82
2023/01/28 00:16:21;;;;;;;50.53;21.30;;;1.00;99.90;;;;;;4995367;28;20208;-81
2023/01/28 00:18:48;;;;;;;53.53;21.93;;;1.10;99.90;;;;;;4995254;28;20556;-79
2023/01/28 00:21:15;;;;;;;50.80;20.40;;;1.10;99.90;;;;;;4996434;28;20213;-81
2023/01/28 00:23:46;;;;;;;50.93;21.20;;;1.10;99.90;;;;;;4991956;28;20288;-74
2023/01/28 00:26:14;;;;;;;55.07;22.63;;;1.10;99.90;;;;;;4989646;28;20208;-82
2023/01/28 00:28:41;;;;;;;53.23;21.73;;;1.00;99.90;;;;;;4992327;28;20197;-71
2023/01/28 00:31:15;;;;;;;56.33;21.80;;;1.00;99.90;;;;;;4977259;28;20225;-79
2023/01/28 00:33:43;;;;;;;50.50;20.90;;;1.00;99.90;;;;;;4977093;28;20202;-70
2023/01/28 00:36:11;;;;;;;57.10;21.70;;;1.10;99.90;;;;;;4976520;28;20197;-77
2023/01/28 00:38:38;;;;;;;54.13;21.67;;;1.10;99.90;;;;;;4994335;28;20193;-67
2023/01/28 00:41:10;;;;;;;53.23;21.53;;;1.20;99.90;;;;;;4989162;28;20251;-71
2023/01/28 00:43:37;;;;;;;50.77;20.50;;;1.20;99.90;;;;;;4974436;28;20201;-71
2023/01/28 00:46:06;;;;;;;50.43;21.23;;;1.20;99.90;;;;;;4974370;28;20280;-74
2023/01/28 00:48:34;;;;;;;48.33;20.53;;;1.20;99.90;;;;;;4984483;28;20199;-71
2023/01/28 00:51:01;;;;;;;50.83;21.20;;;1.20;99.90;;;;;;4978574;28;20703;-73
2023/01/28 00:53:28;;;;;;;52.07;21.30;;;1.20;99.90;;;;;;4976304;28;20196;-69
2023/01/28 00:55:55;;;;;;;47.97;19.70;;;1.10;99.90;;;;;;4973597;28;20200;-75
2023/01/28 00:58:25;;;;;;;51.40;20.47;;;1.10;99.90;;;;;;4975749;28;20296;-71
2023/01/28 01:00:53;;;;;;;50.03;19.97;;;1.00;99.90;;;;;;4960111;28;20278;-76
2023/01/28 01:03:20;;;;;;;48.13;19.40;;;1.00;99.90;;;;;;4977231;28;20678;-72
2023/01/28 01:05:47;;;;;;;57.30;20.67;;;1.10;99.90;;;;;;4976807;28;20681;-79
2023/01/28 01:08:14;;;;;;;47.87;19.60;;;1.10;99.90;;;;;;4993893;28;20193;-76
2023/01/28 01:10:41;;;;;;;45.50;19.37;;;1.10;99.90;;;;;;4993931;28;20228;-79
2023/01/28 01:13:10;;;;;;;51.77;20.27;;;1.20;99.90;;;;;;4975433;28;20199;-70
2023/01/28 01:15:37;;;;;;;45.27;19.47;;;1.10;99.90;;;;;;4990197;28;20212;-80
2023/01/28 01:18:04;;;;;;;50.83;18.87;;;1.20;99.90;;;;;;4994219;28;20201;-81
2023/01/28 01:20:32;;;;;;;51.50;20.23;;;1.10;99.90;;;;;;4994101;28;20200;-82
2023/01/28 01:22:59;;;;;;;52.00;21.23;;;1.10;99.90;;;;;;4994077;28;20210;-81
2023/01/28 01:25:26;;;;;;;52.73;21.03;;;1.10;99.90;;;;;;4995245;28;20181;-83
2023/01/28 01:27:52;;;;;;;46.13;19.50;;;1.20;99.90;;;;;;4993973;28;20217;-77
2023/01/28 01:30:20;;;;;;;50.17;19.83;;;1.20;99.90;;;;;;4994534;28;20567;-83
2023/01/28 01:32:47;;;;;;;46.87;19.30;;;1.20;99.90;;;;;;4994968;28;20205;-70
2023/01/28 01:35:14;;;;;;;49.33;19.67;;;1.20;99.90;;;;;;4994513;28;20531;-76
2023/01/28 01:37:43;;;;;;;46.10;19.47;;;1.30;99.90;;;;;;4974858;28;20200;-81
2023/01/28 01:40:11;;;;;;;48.20;19.60;;;1.30;99.90;;;;;;4976748;28;20321;-77
2023/01/28 01:42:38;;;;;;;48.57;19.20;;;1.30;99.90;;;;;;4977481;28;20218;-78
2023/01/28 01:45:06;;;;;;;49.43;19.87;;;1.30;99.90;;;;;;4976902;28;20559;-80
2023/01/28 01:47:57;;;;;;;48.47;19.07;;;1.30;99.90;;;;;;4977354;28;20205;-78
2023/01/28 01:50:36;;;;;;;47.07;18.33;;;1.30;99.90;;;;;;4977244;28;20226;-78
2023/01/28 01:53:13;;;;;;;46.73;19.60;;;1.30;99.90;;;;;;4992894;28;20204;-68
2023/01/28 01:55:44;;;;;;;46.57;18.97;;;1.40;99.90;;;;;;4995500;28;20188;-69
2023/01/28 01:58:15;;;;;;;44.00;18.10;;;1.40;99.90;;;;;;4995199;28;20216;-69
2023/01/28 02:00:42;;;;;;;44.13;18.60;;;1.40;99.90;;;;;;4981741;28;20201;-82
2023/01/28 02:03:11;;;;;;;51.13;19.03;;;1.40;99.90;;;;;;4977766;28;20205;-68
2023/01/28 02:05:38;;;;;;;47.27;19.73;;;1.40;99.90;;;;;;4995784;28;20592;-81
2023/01/28 02:08:21;;;;;;;46.77;19.60;;;1.40;99.90;;;;;;4990969;28;20219;-69
2023/01/28 02:10:55;;;;;;;48.07;19.10;;;1.40;99.90;;;;;;4999240;28;20244;-73
2023/01/28 02:13:27;;;;;;;44.97;19.43;;;1.40;99.90;;;;;;4995876;28;20225;-71
2023/01/28 02:15:55;;;;;;;46.80;19.30;;;1.50;99.90;;;;;;4995627;28;20302;-80
2023/01/28 02:18:22;;;;;;;46.13;18.83;;;1.50;99.90;;;;;;4996465;28;20201;-74
2023/01/28 02:21:02;;;;;;;49.37;19.07;;;1.50;99.90;;;;;;4993354;28;20200;-66
2023/01/28 02:23:49;;;;;;;44.87;18.37;;;1.50;99.90;;;;;;4975946;28;20192;-68
2023/01/28 02:26:24;;;;;;;43.20;18.47;;;1.60;99.90;;;;;;5006427;28;20549;-69
2023/01/28 02:29:08;;;;;;;44.23;18.07;;;1.60;99.90;;;;;;4994875;28;20192;-70
2023/01/28 02:31:54;;;;;;;42.40;18.17;;;1.60;99.90;;;;;;5001622;28;20224;-69
2023/01/28 02:34:50;;;;;;;45.87;19.30;;;1.60;99.90;;;;;;4995969;28;20395;-68
2023/01/28 02:37:24;;;;;;;46.73;18.70;;;1.50;99.90;;;;;;4980057;28;20291;-68
2023/01/28 02:39:56;;;;;;;45.43;18.03;;;1.50;99.90;;;;;;4995050;28;20207;-68
2023/01/28 02:42:29;;;;;;;47.67;18.17;;;1.50;99.90;;;;;;4987353;28;20552;-72
2023/01/28 02:44:55;;;;;;;43.17;18.80;;;1.60;99.90;;;;;;4994093;28;20199;-72
2023/01/28 02:50:12;;;;;;;46.00;18.03;;;1.60;99.90;;;;;;4991881;28;20189;-75
2023/01/28 02:55:50;;;;;;;46.37;18.03;;;1.60;99.90;;;;;;4995839;28;20197;-71
2023/01/28 02:58:36;;;;;;;46.07;18.40;;;1.50;99.90;;;;;;4997314;28;20216;-69
2023/01/28 03:01:38;;;;;;;46.97;18.93;;;1.50;99.90;;;;;;4980154;28;20208;-78
2023/01/28 03:04:18;;;;;;;46.20;18.97;;;1.50;99.90;;;;;;4981538;28;20200;-66
2023/01/28 03:06:50;;;;;;;44.13;17.13;;;1.50;99.90;;;;;;4987374;28;20215;-74
2023/01/28 03:09:23;;;;;;;50.80;19.50;;;1.50;99.90;;;;;;4992816;28;20677;-72
2023/01/28 03:38:21;;;;;;;49.10;18.80;;;1.30;99.90;;;;;;4996590;28;20197;-69
2023/01/28 03:40:56;;;;;;;47.43;19.60;;;1.30;99.90;;;;;;4981241;28;20236;-71
2023/01/28 03:43:23;;;;;;;47.27;19.03;;;1.30;99.90;;;;;;4979430;28;20193;-80
2023/01/28 03:45:51;;;;;;;47.27;18.87;;;1.30;99.90;;;;;;4979106;28;20700;-80
2023/01/28 03:48:19;;;;;;;45.30;19.07;;;1.30;99.90;;;;;;4978859;28;20649;-74
2023/01/28 03:50:47;;;;;;;48.60;18.57;;;1.30;99.90;;;;;;4996185;28;20214;-79
2023/01/28 03:53:15;;;;;;;46.00;18.07;;;1.30;99.90;;;;;;4963165;28;20200;-74
2023/01/28 03:55:47;;;;;;;42.73;17.47;;;1.30;99.90;;;;;;4978805;28;20204;-75
2023/01/28 03:58:15;;;;;;;43.73;17.63;;;1.20;99.90;;;;;;4982729;28;20716;-71
2023/01/28 04:00:42;;;;;;;37.93;17.17;;;1.20;99.90;;;;;;4994564;28;20203;-69
2023/01/28 04:03:16;;;;;;;40.20;17.50;;;1.20;99.90;;;;;;4994765;28;20228;-68
2023/01/28 04:06:05;;;;;;;39.93;17.13;;;1.20;99.90;;;;;;4994437;28;20315;-69
2023/01/28 04:08:32;;;;;;;37.57;15.63;;;1.30;99.90;;;;;;4995063;28;20197;-69
2023/01/28 04:11:14;;;;;;;36.80;16.30;;;1.20;99.90;;;;;;4994306;28;20205;-69
2023/01/28 04:13:42;;;;;;;37.93;17.00;;;1.10;99.90;;;;;;4996282;28;20196;-68
2023/01/28 04:16:10;;;;;;;38.47;17.17;;;1.20;99.90;;;;;;4977778;28;20204;-68
2023/01/28 04:18:37;;;;;;;38.47;16.87;;;1.20;99.90;;;;;;4978030;28;20219;-68
2023/01/28 04:21:05;;;;;;;38.37;16.60;;;1.20;99.90;;;;;;4977997;28;20225;-71
2023/01/28 04:23:31;;;;;;;38.23;16.70;;;1.20;99.90;;;;;;4978230;28;20193;-68
2023/01/28 04:25:58;;;;;;;37.47;16.13;;;1.20;99.90;;;;;;4977804;28;20232;-68
2023/01/28 04:28:25;;;;;;;33.23;15.03;;;1.20;99.90;;;;;;4995368;28;20235;-69
2023/01/28 04:30:52;;;;;;;35.00;15.57;;;1.00;99.90;;;;;;4978012;28;20203;-71
2023/01/28 04:33:19;;;;;;;34.30;14.77;;;1.00;99.90;;;;;;4977666;28;20198;-75
2023/01/28 04:35:46;;;;;;;34.27;16.00;;;1.00;99.90;;;;;;4995635;28;20659;-79
2023/01/28 04:38:13;;;;;;;37.63;15.87;;;1.10;99.90;;;;;;4996084;28;20204;-71
2023/01/28 04:40:40;;;;;;;32.80;15.27;;;1.20;99.90;;;;;;4978639;28;20193;-73
2023/01/28 04:43:08;;;;;;;34.60;14.93;;;1.20;99.90;;;;;;4977742;28;20197;-68
2023/01/28 04:45:35;;;;;;;32.70;15.13;;;1.20;99.90;;;;;;4977395;28;20210;-74
2023/01/28 04:48:01;;;;;;;30.67;14.27;;;1.20;99.90;;;;;;4977660;28;20651;-70
2023/01/28 04:50:28;;;;;;;33.97;15.03;;;1.30;99.90;;;;;;4977593;28;20650;-78
2023/01/28 04:52:55;;;;;;;32.70;15.43;;;1.30;99.90;;;;;;4977913;28;20220;-80
2023/01/28 04:55:22;;;;;;;33.10;14.37;;;1.30;99.90;;;;;;4977685;28;20203;-71
2023/01/28 04:57:49;;;;;;;32.90;15.03;;;1.20;99.90;;;;;;4977769;28;20320;-81
2023/01/28 05:00:16;;;;;;;31.50;15.30;;;1.30;99.90;;;;;;4995687;28;20533;-82
2023/01/28 05:02:43;;;;;;;33.07;14.97;;;1.20;99.90;;;;;;4977522;28;20219;-71
2023/01/28 05:05:10;;;;;;;32.27;14.50;;;1.30;99.90;;;;;;4987691;28;20749;-72
2023/01/28 05:07:37;;;;;;;35.03;15.13;;;1.20;99.90;;;;;;4995079;28;20249;-72
2023/01/28 05:10:04;;;;;;;33.87;15.10;;;1.20;99.90;;;;;;4993908;28;20200;-77
2023/01/28 05:12:32;;;;;;;35.17;14.93;;;1.20;99.90;;;;;;4994023;28;20221;-80
2023/01/28 05:15:00;;;;;;;30.43;13.83;;;1.20;99.90;;;;;;4992814;28;20244;-80
2023/01/28 05:17:27;;;;;;;31.13;14.60;;;1.30;99.90;;;;;;4993623;28;20306;-81
2023/01/28 05:19:54;;;;;;;32.10;13.73;;;1.30;99.90;;;;;;4994071;28;20288;-78
2023/01/28 05:22:21;;;;;;;32.27;13.67;;;1.30;99.90;;;;;;4993773;28;20814;-81
2023/01/28 05:24:48;;;;;;;31.27;14.07;;;1.30;99.90;;;;;;4993552;28;20212;-79
2023/01/28 05:27:15;;;;;;;32.67;14.00;;;1.40;99.90;;;;;;4994501;28;20193;-81
2023/01/28 05:29:42;;;;;;;34.73;14.70;;;1.40;99.90;;;;;;4993517;28;20200;-80
2023/01/28 05:32:09;;;;;;;32.90;14.43;;;1.30;99.90;;;;;;4993204;28;20232;-77
2023/01/28 05:34:36;;;;;;;28.73;13.37;;;1.30;99.90;;;;;;4994397;28;20224;-71
2023/01/28 05:37:03;;;;;;;32.50;13.70;;;1.30;99.90;;;;;;4976931;28;20208;-80
2023/01/28 05:39:30;;;;;;;28.37;13.27;;;1.40;99.90;;;;;;4992962;28;20197;-81
2023/01/28 05:41:57;;;;;;;30.30;13.20;;;1.40;99.90;;;;;;4993217;28;20205;-79
2023/01/28 05:44:24;;;;;;;26.70;12.50;;;1.50;99.90;;;;;;4994417;28;20283;-80
2023/01/28 05:46:51;;;;;;;30.10;13.90;;;1.50;99.90;;;;;;4992744;28;20205;-76
2023/01/28 05:49:18;;;;;;;29.03;13.20;;;1.50;99.90;;;;;;4994627;28;20560;-79
2023/01/28 05:51:47;;;;;;;29.53;14.10;;;1.60;99.90;;;;;;4993232;28;20212;-81
2023/01/28 05:54:14;;;;;;;28.17;13.90;;;1.60;99.90;;;;;;4988248;28;20247;-79
2023/01/28 05:56:40;;;;;;;27.00;13.33;;;1.60;99.90;;;;;;4976610;28;20228;-74
2023/01/28 05:59:10;;;;;;;29.23;13.30;;;1.60;99.90;;;;;;4992145;28;20200;-73
2023/01/28 06:01:37;;;;;;;27.27;13.17;;;1.60;99.90;;;;;;4977020;28;20204;-71
2023/01/28 06:04:04;;;;;;;29.33;13.80;;;1.50;99.90;;;;;;4976336;28;20197;-82
2023/01/28 06:06:31;;;;;;;27.67;13.47;;;1.50;99.90;;;;;;4976558;28;20243;-77
2023/01/28 06:08:58;;;;;;;29.60;13.33;;;1.50;99.90;;;;;;4975943;28;20199;-80
2023/01/28 06:11:24;;;;;;;26.27;12.67;;;1.60;99.90;;;;;;4976709;28;20251;-79
2023/01/28 06:13:51;;;;;;;26.97;13.37;;;1.60;99.90;;;;;;4976580;28;20204;-77
2023/01/28 06:16:18;;;;;;;30.20;13.87;;;1.60;99.90;;;;;;4975981;28;20192;-78
2023/01/28 06:18:45;;;;;;;27.50;13.03;;;1.60;99.90;;;;;;4976387;28;20200;-80
2023/01/28 06:21:12;;;;;;;30.13;13.23;;;1.60;99.90;;;;;;4976584;28;20205;-80
2023/01/28 06:23:39;;;;;;;28.27;13.27;;;1.60;99.90;;;;;;4993974;28;20196;-72
2023/01/28 06:26:06;;;;;;;32.50;14.10;;;1.60;99.90;;;;;;4993216;28;20196;-75
2023/01/28 06:28:33;;;;;;;29.97;13.23;;;1.60;99.90;;;;;;4975738;28;20666;-76
2023/01/28 06:31:00;;;;;;;28.30;13.00;;;1.60;99.90;;;;;;4976170;28;20657;-81
2023/01/28 06:33:28;;;;;;;30.20;13.40;;;1.70;99.90;;;;;;4976064;28;20274;-70
2023/01/28 06:35:55;;;;;;;27.30;12.97;;;1.70;99.90;;;;;;4976334;28;20195;-81
2023/01/28 06:38:22;;;;;;;35.43;14.27;;;1.70;99.90;;;;;;4975937;28;20576;-71
2023/01/28 06:40:54;;;;;;;29.93;13.00;;;1.70;99.90;;;;;;4975816;28;20197;-79
2023/01/28 06:43:26;;;;;;;31.23;13.07;;;1.60;99.90;;;;;;4976220;28;20292;-75
2023/01/28 06:45:54;;;;;;;29.63;13.07;;;1.70;99.90;;;;;;4976011;28;20207;-75
2023/01/28 06:48:21;;;;;;;30.47;13.30;;;1.70;99.90;;;;;;4976214;28;20197;-75
2023/01/28 06:50:48;;;;;;;32.00;13.43;;;1.60;99.90;;;;;;4975595;28;20299;-76
2023/01/28 06:53:16;;;;;;;31.00;13.40;;;1.60;99.90;;;;;;4993182;28;20212;-79
2023/01/28 06:55:43;;;;;;;31.57;13.43;;;1.60;99.90;;;;;;4976204;28;20192;-83
2023/01/28 06:58:10;;;;;;;32.17;14.10;;;1.50;99.90;;;;;;4976254;28;20576;-80
2023/01/28 07:00:37;;;;;;;35.43;15.10;;;1.40;99.90;;;;;;4976365;28;20218;-87
2023/01/28 07:03:04;;;;;;;34.77;13.93;;;1.40;99.90;;;;;;4986018;28;20196;-79
2023/01/28 07:05:31;;;;;;;34.07;13.60;;;1.50;99.90;;;;;;4994100;28;20236;-80
2023/01/28 07:07:58;;;;;;;35.77;14.30;;;1.60;99.90;;;;;;4976274;28;20191;-76
2023/01/28 07:10:25;;;;;;;35.47;14.63;;;1.60;99.90;;;;;;4982691;28;20210;-78
2023/01/28 07:12:52;;;;;;;36.57;14.13;;;1.60;99.90;;;;;;4994228;28;20331;-80
2023/01/28 07:15:19;;;;;;;37.47;14.30;;;1.50;99.90;;;;;;4992258;28;20192;-81
2023/01/28 07:17:46;;;;;;;33.70;13.53;;;1.60;99.90;;;;;;4993526;28;20571;-81
2023/01/28 07:20:14;;;;;;;38.27;13.97;;;1.60;99.90;;;;;;4993217;28;20189;-80
2023/01/28 07:22:42;;;;;;;31.53;13.47;;;1.60;99.90;;;;;;4993246;28;20237;-80
2023/01/28 07:25:11;;;;;;;35.20;13.77;;;1.50;99.90;;;;;;4991555;28;20211;-78
2023/01/28 07:27:38;;;;;;;34.00;14.00;;;1.60;99.90;;;;;;4991962;28;20203;-79
2023/01/28 07:30:05;;;;;;;36.47;14.20;;;1.60;99.90;;;;;;4992186;28;20197;-81
2023/01/28 07:32:32;;;;;;;31.77;12.80;;;1.60;99.90;;;;;;4991872;28;20220;-81
2023/01/28 07:34:59;;;;;;;31.43;13.53;;;1.50;99.90;;;;;;4975541;28;20197;-80
2023/01/28 07:37:26;;;;;;;30.07;12.87;;;1.50;99.90;;;;;;4993384;28;20197;-80
2023/01/28 07:39:52;;;;;;;32.10;13.13;;;1.50;99.90;;;;;;4995745;28;20196;-81
2023/01/28 07:42:19;;;;;;;31.43;13.27;;;1.50;99.90;;;;;;4986434;28;20205;-79
2023/01/28 07:44:46;;;;;;;30.73;12.87;;;1.60;99.90;;;;;;4996184;28;20235;-78
2023/01/28 07:47:13;;;;;;;31.50;13.17;;;1.60;99.90;;;;;;4979067;28;20207;-76
2023/01/28 07:49:40;;;;;;;35.13;14.20;;;1.60;99.90;;;;;;4994724;28;20200;-78
2023/01/28 07:52:08;;;;;;;31.27;13.03;;;1.60;99.90;;;;;;4994929;28;20582;-76
2023/01/28 07:54:34;;;;;;;29.97;13.07;;;1.50;99.90;;;;;;4994930;28;20200;-76
2023/01/28 07:57:01;;;;;;;33.33;13.90;;;1.50;99.90;;;;;;4994598;28;20216;-81
2023/01/28 07:59:28;;;;;;;34.70;14.00;;;1.50;99.90;;;;;;4998358;28;20235;-77
2023/01/28 08:01:55;;;;;;;31.93;13.70;;;1.60;99.90;;;;;;4996429;28;20600;-83
2023/01/28 08:04:22;;;;;;;32.50;14.10;;;1.70;99.90;;;;;;4995306;28;20205;-78
2023/01/28 08:06:51;;;;;;;35.53;14.40;;;1.70;99.90;;;;;;4995305;28;20644;-82
2023/01/28 08:09:17;;;;;;;34.53;13.97;;;1.80;99.90;;;;;;4995515;28;20650;-85
2023/01/28 08:11:44;;;;;;;32.50;13.83;;;1.80;99.90;;;;;;4979474;28;20197;-80
2023/01/28 08:14:11;;;;;;;36.50;14.63;;;1.90;99.90;;;;;;4996284;28;20220;-86
2023/01/28 08:16:38;;;;;;;31.73;13.77;;;1.80;99.90;;;;;;4994784;28;20197;-86
2023/01/28 08:19:05;;;;;;;36.60;14.57;;;1.80;99.90;;;;;;4995510;28;20664;-84
2023/01/28 08:21:32;;;;;;;33.93;14.07;;;1.80;99.90;;;;;;4995519;28;20196;-84
2023/01/28 08:23:59;;;;;;;33.67;14.07;;;1.80;99.90;;;;;;4995845;28;20195;-84
2023/01/28 08:26:26;;;;;;;32.67;14.00;;;1.80;99.90;;;;;;4996345;28;20197;-83
2023/01/28 08:28:52;;;;;;;35.83;14.90;;;1.80;99.90;;;;;;4980718;28;20204;-86
2023/01/28 08:31:19;;;;;;;33.83;13.93;;;1.80;99.90;;;;;;4997587;28;20689;-84
2023/01/28 08:33:46;;;;;;;30.20;13.37;;;1.80;99.90;;;;;;4999242;28;21104;-82
2023/01/28 08:36:14;;;;;;;31.33;14.03;;;1.70;99.90;;;;;;5000965;28;20203;-82
2023/01/28 08:38:42;;;;;;;33.13;14.47;;;1.70;99.90;;;;;;4980673;28;20211;-91
2023/01/28 08:41:09;;;;;;;32.67;14.07;;;1.60;99.90;;;;;;4996066;28;20235;-85
2023/01/28 08:43:36;;;;;;;34.03;14.83;;;1.70;99.90;;;;;;4995893;28;20268;-87
2023/01/28 08:46:06;;;;;;;33.93;14.77;;;1.70;99.90;;;;;;4995498;28;20198;-84
2023/01/28 08:48:32;;;;;;;32.60;14.27;;;1.80;99.90;;;;;;4995302;28;20547;-87
2023/01/28 08:50:59;;;;;;;30.70;14.73;;;1.70;99.90;;;;;;4997656;28;20193;-77
2023/01/28 08:53:26;;;;;;;33.53;14.80;;;1.70;99.90;;;;;;4996587;28;20683;-76
2023/01/28 08:55:54;;;;;;;31.80;14.77;;;1.70;99.90;;;;;;4995995;28;20196;-87
2023/01/28 08:58:21;;;;;;;32.60;14.50;;;1.70;99.90;;;;;;4994804;28;20597;-85
2023/01/28 09:00:49;;;;;;;31.50;15.03;;;1.70;99.90;;;;;;4995086;28;20201;-83
2023/01/28 09:03:17;;;;;;;31.10;14.60;;;1.70;99.90;;;;;;4995230;28;20199;-79
2023/01/28 09:05:44;;;;;;;34.63;15.13;;;1.60;99.90;;;;;;4995573;28;20545;-84
2023/01/28 09:08:13;;;;;;;30.27;13.83;;;1.60;99.90;;;;;;4992648;28;20287;-79
2023/01/28 09:10:41;;;;;;;31.20;14.83;;;1.50;99.90;;;;;;4977880;28;20560;-75
2023/01/28 09:13:12;;;;;;;32.17;15.03;;;1.60;99.90;;;;;;4986662;28;20285;-75
2023/01/28 09:15:39;;;;;;;30.13;14.47;;;1.60;99.90;;;;;;4993428;28;20197;-82
2023/01/28 09:18:06;;;;;;;31.03;14.40;;;1.60;99.90;;;;;;4993305;28;20224;-74
2023/01/28 09:20:33;;;;;;;29.13;14.43;;;1.60;99.90;;;;;;4993464;28;20185;-74
2023/01/28 09:23:00;;;;;;;27.70;13.43;;;1.60;99.90;;;;;;4993587;28;20216;-75
2023/01/28 09:25:28;;;;;;;27.57;13.73;;;1.70;99.90;;;;;;4993477;28;20300;-76
2023/01/28 09:27:56;;;;;;;28.43;13.43;;;1.60;99.90;;;;;;4995492;28;20207;-81
2023/01/28 09:30:23;;;;;;;27.90;12.97;;;1.60;99.90;;;;;;4995649;28;20551;-83
2023/01/28 09:32:54;;;;;;;26.70;12.73;;;1.60;99.90;;;;;;4993985;28;20696;-78
2023/01/28 09:35:21;;;;;;;39.30;18.23;;;1.60;99.90;;;;;;4993531;28;20209;-73
2023/01/28 09:37:50;;;;;;;27.90;14.47;;;1.60;99.90;;;;;;4993337;28;20211;-84
2023/01/28 09:40:35;;;;;;;29.60;14.20;;;1.60;99.90;;;;;;4995008;28;20664;-86
2023/01/28 09:43:24;;;;;;;24.50;12.80;;;1.70;99.90;;;;;;4995518;28;20203;-87
2023/01/28 09:45:54;;;;;;;27.50;13.67;;;1.70;99.90;;;;;;4993945;28;20293;-79
2023/01/28 09:48:32;;;;;;;27.37;12.73;;;1.80;99.90;;;;;;4995227;28;20677;-85
2023/01/28 09:51:00;;;;;;;26.63;13.40;;;1.70;99.90;;;;;;4995463;28;20192;-82
2023/01/28 09:53:35;;;;;;;25.83;12.53;;;1.70;99.90;;;;;;4994055;28;20223;-85
2023/01/28 09:56:13;;;;;;;25.07;12.43;;;1.80;99.90;;;;;;4977093;28;20192;-85
2023/01/28 09:58:42;;;;;;;24.63;12.37;;;1.80;99.90;;;;;;4977938;28;20214;-85
2023/01/28 10:01:14;;;;;;;24.60;12.03;;;1.80;99.90;;;;;;4961893;28;20200;-84
2023/01/28 10:03:55;;;;;;;24.00;12.40;;;1.80;99.90;;;;;;4978087;28;20246;-86
2023/01/28 10:06:52;;;;;;;23.30;12.37;;;1.80;99.90;;;;;;4994838;28;20240;-76
2023/01/28 10:09:40;;;;;;;24.30;12.27;;;1.70;99.90;;;;;;4978235;28;20546;-85
2023/01/28 10:12:32;;;;;;;23.60;12.50;;;1.70;99.90;;;;;;4978604;28;20205;-82
2023/01/28 10:15:17;;;;;;;27.03;12.60;;;1.60;99.90;;;;;;4994757;28;20195;-84
2023/01/28 10:17:48;;;;;;;24.03;12.57;;;1.60;99.90;;;;;;4977057;28;20222;-81
2023/01/28 10:20:31;;;;;;;29.10;14.50;;;1.50;99.90;;;;;;4976497;28;20246;-85
2023/01/28 10:23:11;;;;;;;24.77;12.43;;;1.60;99.90;;;;;;4993090;28;20189;-80
2023/01/28 10:25:43;;;;;;;24.53;12.50;;;1.60;99.90;;;;;;4977156;28;20200;-82
2023/01/28 10:28:26;;;;;;;23.77;13.27;;;1.60;99.90;;;;;;4973488;28;20196;-76
2023/01/28 10:30:53;;;;;;;26.03;13.00;;;1.50;99.90;;;;;;4973461;28;20204;-82
2023/01/28 10:33:23;;;;;;;25.53;13.60;;;1.60;99.90;;;;;;4973625;28;20214;-84
2023/01/28 10:35:50;;;;;;;25.27;13.33;;;1.50;99.90;;;;;;4973364;28;20193;-83
2023/01/28 10:38:21;;;;;;;25.77;13.20;;;1.50;99.90;;;;;;4974887;28;20201;-88
2023/01/28 10:40:49;;;;;;;25.03;12.93;;;1.40;99.90;;;;;;4975489;28;20190;-88
2023/01/28 10:43:20;;;;;;;24.63;13.20;;;1.50;99.90;;;;;;4975515;28;20588;-82
2023/01/28 10:46:02;;;;;;;23.60;12.83;;;1.40;99.90;;;;;;4974193;28;20201;-84
2023/01/28 10:48:41;;;;;;;27.20;13.47;;;1.60;99.90;;;;;;4973388;28;20256;-85
2023/01/28 10:51:08;;;;;;;28.80;13.43;;;1.60;99.90;;;;;;4986983;28;20193;-86
2023/01/28 10:53:44;;;;;;;27.23;13.90;;;1.50;99.90;;;;;;4977201;28;20224;-86
2023/01/28 10:56:22;;;;;;;28.87;13.80;;;1.50;99.90;;;;;;4993931;28;20262;-83
2023/01/28 10:59:03;;;;;;;26.43;13.77;;;1.50;99.90;;;;;;4994488;28;20219;-85
2023/01/28 11:01:43;;;;;;;24.23;13.67;;;1.50;99.90;;;;;;4992137;28;20219;-83
2023/01/28 11:04:23;;;;;;;24.77;12.87;;;1.60;99.90;;;;;;4991816;28;20204;-79
2023/01/28 11:06:56;;;;;;;25.90;12.87;;;1.50;99.90;;;;;;4992192;28;20242;-77
2023/01/28 11:09:34;;;;;;;24.67;12.53;;;1.40;99.90;;;;;;4992611;28;20204;-81
2023/01/28 11:12:30;;;;;;;25.07;13.33;;;1.30;99.90;;;;;;5002843;28;20194;-77
2023/01/28 11:14:57;;;;;;;21.80;12.03;;;1.30;99.90;;;;;;4946120;29;20246;-75
2023/01/28 11:17:31;;;;;;;22.63;11.63;;;1.20;99.90;;;;;;4928946;29;20266;-75
2023/01/28 11:20:07;;;;;;;22.10;11.87;;;1.20;99.90;;;;;;4940501;29;20213;-75
2023/01/28 11:22:40;;;;;;;25.97;12.37;;;1.10;99.90;;;;;;4954890;29;20206;-86
2023/01/28 11:25:22;;;;;;;26.57;12.03;;;1.10;99.90;;;;;;4929283;29;20213;-80
2023/01/28 11:27:51;;;;;;;23.77;12.47;;;1.20;99.90;;;;;;4927962;29;20603;-84
2023/01/28 11:30:39;;;;;;;23.13;12.37;;;1.30;99.90;;;;;;4941667;29;20244;-87
2023/01/28 11:33:20;;;;;;;27.00;12.53;;;1.30;99.90;;;;;;4946666;29;20319;-88
2023/01/28 11:35:57;;;;;;;23.10;11.80;;;1.40;99.90;;;;;;4937803;29;20199;-81
2023/01/28 11:38:25;;;;;;;22.60;12.60;;;1.40;99.90;;;;;;4937897;29;20619;-83
2023/01/28 11:40:54;;;;;;;24.30;12.03;;;1.40;99.90;;;;;;4937691;29;20279;-85
2023/01/28 11:43:26;;;;;;;23.57;12.13;;;1.40;99.90;;;;;;4926617;29;20206;-88
2023/01/28 11:46:17;;;;;;;23.27;12.23;;;1.50;99.90;;;;;;4921874;29;20209;-81
2023/01/28 11:49:13;;;;;;;24.33;12.20;;;1.40;99.90;;;;;;4936948;29;20218;-79
2023/01/28 11:52:09;;;;;;;21.63;11.53;;;1.50;99.90;;;;;;4898450;29;20209;-76
2023/01/28 11:54:57;;;;;;;22.73;11.67;;;1.40;99.90;;;;;;4936531;29;20237;-81
2023/01/28 11:57:41;;;;;;;21.33;11.10;;;1.50;99.90;;;;;;4920545;29;20228;-83
2023/01/28 12:00:30;;;;;;;21.33;11.80;;;1.50;99.90;;;;;;4921253;29;20645;-75
2023/01/28 12:03:18;;;;;;;21.53;11.67;;;1.50;99.90;;;;;;4920424;29;20213;-76
2023/01/28 12:05:56;;;;;;;20.70;11.20;;;1.50;99.90;;;;;;4919781;29;20237;-75
2023/01/28 12:08:44;;;;;;;21.50;11.30;;;1.60;99.90;;;;;;4935972;29;20206;-72
2023/01/28 12:11:14;;;;;;;22.33;11.40;;;1.60;99.90;;;;;;4909767;29;20210;-72
2023/01/28 12:14:07;;;;;;;23.40;11.77;;;1.60;99.90;;;;;;4916582;29;20264;-74
2023/01/28 12:17:14;;;;;;;22.43;11.30;;;1.70;99.90;;;;;;4916361;29;20209;-76
2023/01/28 12:19:56;;;;;;;22.40;12.40;;;1.70;99.90;;;;;;4916671;29;20260;-76
2023/01/28 12:22:32;;;;;;;21.77;11.97;;;1.60;99.90;;;;;;4916298;29;20294;-74
2023/01/28 12:25:11;;;;;;;23.90;12.17;;;1.60;99.90;;;;;;4918997;29;20689;-85
2023/01/28 12:28:06;;;;;;;21.97;11.60;;;1.60;99.90;;;;;;4939886;28;20286;-71
2023/01/28 12:30:50;;;;;;;24.10;12.00;;;1.60;99.90;;;;;;4994752;28;20200;-71
2023/01/28 12:33:30;;;;;;;20.90;11.40;;;1.60;99.90;;;;;;4978127;28;20252;-80
2023/01/28 12:36:18;;;;;;;20.33;10.70;;;1.60;99.90;;;;;;4977758;28;20207;-73
2023/01/28 12:39:05;;;;;;;20.50;11.13;;;1.30;99.90;;;;;;4995414;28;20211;-72
2023/01/28 12:41:41;;;;;;;21.17;11.33;;;1.30;99.90;;;;;;4985508;28;20662;-74
2023/01/28 12:44:19;;;;;;;21.87;11.43;;;1.30;99.90;;;;;;4985278;28;20546;-71
2023/01/28 12:46:51;;;;;;;20.40;11.57;;;1.50;99.90;;;;;;4994261;28;20243;-70
2023/01/28 12:49:28;;;;;;;21.97;11.80;;;1.50;99.90;;;;;;4995680;28;20196;-75
2023/01/28 12:52:13;;;;;;;22.77;11.23;;;1.50;99.90;;;;;;4978038;28;20653;-76
2023/01/28 12:55:24;;;;;;;24.60;12.27;;;1.50;99.90;;;;;;4976442;28;20708;-72
2023/01/28 12:57:52;;;;;;;20.53;10.87;;;1.50;99.90;;;;;;4919208;29;20238;-78
2023/01/28 13:00:40;;;;;;;22.23;11.97;;;1.60;99.90;;;;;;4944741;29;20282;-78
2023/01/28 13:03:33;;;;;;;24.00;11.60;;;1.50;99.90;;;;;;4937480;29;20668;-70
2023/01/28 13:06:08;;;;;;;22.67;11.77;;;1.50;99.90;;;;;;4937871;29;20242;-75
2023/01/28 13:08:35;;;;;;;19.50;10.93;;;1.40;99.90;;;;;;4934495;29;20205;-72
2023/01/28 13:11:13;;;;;;;21.63;11.30;;;1.40;99.90;;;;;;4947956;29;20205;-73
2023/01/28 13:13:42;;;;;;;19.53;10.87;;;1.40;99.90;;;;;;4934104;29;20229;-74
2023/01/28 13:16:12;;;;;;;19.43;11.00;;;1.40;99.90;;;;;;4935515;29;20664;-75
2023/01/28 13:18:38;;;;;;;19.87;10.97;;;1.40;99.90;;;;;;4936312;28;20257;-72
2023/01/28 13:21:12;;;;;;;20.40;10.87;;;1.50;99.90;;;;;;4953076;29;20273;-74
2023/01/28 13:23:49;;;;;;;21.03;10.73;;;1.50;99.90;;;;;;4938100;29;20202;-73
2023/01/28 13:26:19;;;;;;;20.63;10.43;;;1.50;99.90;;;;;;4953030;29;20289;-77
2023/01/28 13:28:51;;;;;;;18.50;10.33;;;1.50;99.90;;;;;;4937326;29;20291;-76
2023/01/28 13:31:23;;;;;;;19.57;10.33;;;1.50;99.90;;;;;;4937537;29;20205;-75